Time;durP1;ratioP1;P1;durP2;ratioP2;P2;SDS_P1;SDS_P2;PMS_P1;PMS_P2;Temp;Humidity;BMP_temperature;BMP_pressure;BME280_temperature;BME280_humidity;BME280_pressure;Samples;Min_cycle;Max_cycle;Signal;HPM_P1;HPM_P2
2020/12/21 00:01:01;;;;;;;19.40;17.30;;;7.40;99.90;;;;;;5089758;28;20531;-75
2020/12/21 00:03:27;;;;;;;20.17;17.23;;;7.50;99.90;;;;;;5090004;28;20438;-75
2020/12/21 00:05:53;;;;;;;18.90;16.90;;;7.40;99.90;;;;;;5088477;28;20446;-74
2020/12/21 00:08:20;;;;;;;19.23;16.93;;;7.40;99.90;;;;;;5089037;28;20492;-73
2020/12/21 00:10:49;;;;;;;20.97;16.17;;;7.40;99.90;;;;;;5089367;28;20533;-73
2020/12/21 00:13:17;;;;;;;18.33;16.27;;;7.40;99.90;;;;;;5105240;28;20449;-72
2020/12/21 00:15:43;;;;;;;20.10;17.23;;;7.50;99.90;;;;;;5109160;28;20548;-74
2020/12/21 00:18:10;;;;;;;20.20;16.33;;;7.50;99.90;;;;;;5110480;28;20457;-73
2020/12/21 00:20:36;;;;;;;17.40;15.63;;;7.50;99.90;;;;;;5110351;28;20445;-75
2020/12/21 00:23:03;;;;;;;19.03;16.97;;;7.50;99.90;;;;;;5109621;28;20867;-75
2020/12/21 00:25:29;;;;;;;20.53;18.30;;;7.50;99.90;;;;;;5108788;28;21023;-76
2020/12/21 00:27:56;;;;;;;19.87;17.87;;;7.50;99.90;;;;;;5110523;28;21111;-75
2020/12/21 00:30:22;;;;;;;19.53;17.43;;;7.50;99.90;;;;;;5111942;28;20524;-74
2020/12/21 00:32:49;;;;;;;21.13;17.90;;;7.50;99.90;;;;;;5109921;28;20452;-75
2020/12/21 00:35:15;;;;;;;20.47;17.07;;;7.50;99.90;;;;;;5109143;28;20532;-75
2020/12/21 00:37:42;;;;;;;19.17;16.70;;;7.50;99.90;;;;;;5107249;27;21002;-76
2020/12/21 00:40:08;;;;;;;19.50;16.17;;;7.50;99.90;;;;;;5093885;27;20470;-75
2020/12/21 00:42:34;;;;;;;20.30;17.00;;;7.50;99.90;;;;;;5108938;28;20563;-75
2020/12/21 00:45:02;;;;;;;18.67;16.73;;;7.50;99.90;;;;;;5109421;28;20497;-75
2020/12/21 00:47:31;;;;;;;17.80;15.17;;;7.50;99.90;;;;;;5107781;28;20497;-75
2020/12/21 00:49:58;;;;;;;18.47;16.30;;;7.40;99.90;;;;;;5109939;28;20821;-76
2020/12/21 00:52:24;;;;;;;19.83;16.80;;;7.30;99.90;;;;;;5108601;28;20524;-73
2020/12/21 00:54:51;;;;;;;21.87;16.57;;;7.10;99.90;;;;;;5109304;28;20524;-74
2020/12/21 00:57:17;;;;;;;20.00;16.00;;;7.00;99.90;;;;;;5108168;28;21030;-73
2020/12/21 00:59:43;;;;;;;19.57;17.47;;;6.80;99.90;;;;;;5110173;28;20530;-74
2020/12/21 01:02:11;;;;;;;18.43;16.53;;;6.80;99.90;;;;;;5109861;28;20481;-75
2020/12/21 01:04:37;;;;;;;21.13;18.87;;;6.70;99.90;;;;;;5108929;28;20528;-74
2020/12/21 01:07:04;;;;;;;24.00;19.57;;;6.70;99.90;;;;;;5107014;28;20469;-74
2020/12/21 01:09:31;;;;;;;22.93;19.20;;;6.70;99.90;;;;;;5109475;28;20888;-73
2020/12/21 01:11:57;;;;;;;22.40;18.77;;;6.70;99.90;;;;;;5109807;28;20532;-73
2020/12/21 01:14:24;;;;;;;21.53;19.23;;;6.80;99.90;;;;;;5109016;28;20578;-74
2020/12/21 01:16:50;;;;;;;22.10;18.40;;;6.80;99.90;;;;;;5108046;28;20533;-74
2020/12/21 01:19:17;;;;;;;21.67;18.33;;;6.90;99.90;;;;;;5109069;28;20480;-74
2020/12/21 01:21:44;;;;;;;21.43;18.87;;;6.80;99.90;;;;;;5109121;28;20539;-75
2020/12/21 01:24:10;;;;;;;26.30;20.03;;;6.80;99.90;;;;;;5108590;28;21095;-75
2020/12/21 01:26:36;;;;;;;21.53;18.40;;;6.80;99.90;;;;;;5106526;27;21935;-75
2020/12/21 01:29:03;;;;;;;25.73;20.37;;;6.70;99.90;;;;;;5109491;28;20563;-74
2020/12/21 01:31:30;;;;;;;26.30;19.17;;;6.70;99.90;;;;;;5109447;28;20532;-74
2020/12/21 01:33:56;;;;;;;20.73;18.43;;;6.60;99.90;;;;;;5109641;28;20446;-72
2020/12/21 01:36:23;;;;;;;22.10;18.23;;;6.60;99.90;;;;;;5107010;28;20529;-73
2020/12/21 01:38:50;;;;;;;20.57;18.37;;;6.60;99.90;;;;;;5109585;28;20460;-73
2020/12/21 01:41:16;;;;;;;24.17;21.53;;;6.70;99.90;;;;;;5109655;28;20469;-73
2020/12/21 01:43:42;;;;;;;22.77;20.27;;;6.70;99.90;;;;;;5109248;28;20459;-74
2020/12/21 01:46:11;;;;;;;23.17;20.00;;;6.70;99.90;;;;;;5108573;28;20532;-73
2020/12/21 01:48:38;;;;;;;26.20;19.70;;;6.70;99.90;;;;;;5109117;28;20481;-73
2020/12/21 01:51:06;;;;;;;24.70;20.73;;;6.70;99.90;;;;;;5109297;28;20445;-73
2020/12/21 01:53:34;;;;;;;21.47;19.20;;;6.70;99.90;;;;;;5109071;28;20441;-75
2020/12/21 01:56:04;;;;;;;25.07;19.20;;;6.50;99.90;;;;;;5108552;28;20445;-74
2020/12/21 01:58:31;;;;;;;22.33;18.10;;;6.50;99.90;;;;;;5109130;28;20468;-75
2020/12/21 02:00:58;;;;;;;21.50;17.33;;;6.30;99.90;;;;;;5109081;28;20516;-74
2020/12/21 02:03:25;;;;;;;20.07;17.80;;;6.30;99.90;;;;;;5108951;28;20451;-74
2020/12/21 02:05:51;;;;;;;19.60;17.60;;;6.20;99.90;;;;;;5108185;28;20937;-74
2020/12/21 02:08:18;;;;;;;19.63;17.53;;;6.10;99.90;;;;;;5108653;28;21067;-74
2020/12/21 02:10:45;;;;;;;22.13;17.57;;;6.00;99.90;;;;;;5108925;28;20982;-73
2020/12/21 02:13:11;;;;;;;21.90;17.43;;;6.00;99.90;;;;;;5108951;28;20826;-74
2020/12/21 02:15:38;;;;;;;19.70;17.20;;;5.90;99.90;;;;;;5107668;28;20544;-74
2020/12/21 02:18:04;;;;;;;22.73;18.20;;;5.90;99.90;;;;;;5108375;28;20462;-75
2020/12/21 02:20:32;;;;;;;22.33;19.90;;;5.80;99.90;;;;;;5108888;28;20545;-75
2020/12/21 02:22:58;;;;;;;19.60;17.27;;;5.80;99.90;;;;;;5108935;28;20454;-73
2020/12/21 02:25:25;;;;;;;24.13;17.07;;;5.70;99.90;;;;;;5108598;28;20949;-73
2020/12/21 02:27:52;;;;;;;21.57;17.80;;;5.60;99.90;;;;;;5107951;28;20508;-73
2020/12/21 02:30:18;;;;;;;21.33;18.23;;;5.50;99.90;;;;;;5108778;28;20551;-73
2020/12/21 02:32:45;;;;;;;21.77;18.10;;;5.50;99.90;;;;;;5108985;28;20513;-74
2020/12/21 02:35:11;;;;;;;19.63;17.53;;;5.40;99.90;;;;;;5108841;28;20553;-74
2020/12/21 02:37:38;;;;;;;22.20;16.77;;;5.40;99.90;;;;;;5107889;28;20995;-74
2020/12/21 02:40:05;;;;;;;21.83;17.60;;;5.40;99.90;;;;;;5108718;28;20955;-74
2020/12/21 02:42:31;;;;;;;21.80;18.50;;;5.30;99.90;;;;;;5108535;28;20540;-73
2020/12/21 02:44:58;;;;;;;27.47;19.90;;;5.40;99.90;;;;;;5108686;28;20447;-73
2020/12/21 02:47:24;;;;;;;19.67;17.57;;;5.30;99.90;;;;;;5108265;28;20912;-75
2020/12/21 02:49:51;;;;;;;24.37;19.20;;;5.30;99.90;;;;;;5108541;28;20487;-73
2020/12/21 02:52:17;;;;;;;22.33;16.70;;;5.30;99.90;;;;;;5108569;28;20548;-74
2020/12/21 02:54:46;;;;;;;28.57;19.50;;;5.30;99.90;;;;;;5108740;28;20453;-74
2020/12/21 02:57:12;;;;;;;21.03;17.17;;;5.30;99.90;;;;;;5107767;28;20467;-74
2020/12/21 02:59:39;;;;;;;24.20;18.80;;;5.30;99.90;;;;;;5108279;28;20520;-73
2020/12/21 03:02:05;;;;;;;25.80;18.73;;;5.40;99.90;;;;;;5108724;28;20554;-74
2020/12/21 03:04:31;;;;;;;22.57;19.77;;;5.40;99.90;;;;;;5108466;28;20532;-74
2020/12/21 03:06:58;;;;;;;25.00;21.60;;;5.50;99.90;;;;;;5107552;28;20488;-74
2020/12/21 03:09:24;;;;;;;26.17;20.50;;;5.70;99.90;;;;;;5108437;28;20481;-73
2020/12/21 03:11:51;;;;;;;26.03;20.43;;;5.70;99.90;;;;;;5108614;28;20513;-73
2020/12/21 03:14:18;;;;;;;25.30;20.10;;;5.70;99.90;;;;;;5108348;28;20524;-74
2020/12/21 03:16:44;;;;;;;22.87;18.50;;;5.70;99.90;;;;;;5108340;27;20485;-74
2020/12/21 03:19:10;;;;;;;23.40;18.33;;;5.70;99.90;;;;;;5108926;28;20441;-74
2020/12/21 03:21:37;;;;;;;21.53;18.43;;;5.70;99.90;;;;;;5108985;28;20451;-74
2020/12/21 03:24:03;;;;;;;26.27;17.50;;;5.60;99.90;;;;;;5108597;28;20598;-74
2020/12/21 03:26:29;;;;;;;21.70;17.27;;;5.50;99.90;;;;;;5107368;28;20557;-73
2020/12/21 03:28:57;;;;;;;21.07;18.80;;;5.50;99.90;;;;;;5107794;28;20575;-73
2020/12/21 03:31:23;;;;;;;24.47;19.00;;;5.50;99.90;;;;;;5110683;28;20445;-73
2020/12/21 03:33:50;;;;;;;25.47;20.90;;;5.50;99.90;;;;;;5111414;28;20443;-73
2020/12/21 03:36:16;;;;;;;22.33;18.07;;;5.50;99.90;;;;;;5111049;28;20477;-73
2020/12/21 03:38:42;;;;;;;21.57;19.27;;;5.50;99.90;;;;;;5111540;27;20489;-73
2020/12/21 03:41:09;;;;;;;21.17;18.10;;;5.50;99.90;;;;;;5111460;28;20940;-73
2020/12/21 03:43:35;;;;;;;22.93;18.40;;;5.50;99.90;;;;;;5111882;28;20483;-74
2020/12/21 03:46:02;;;;;;;23.83;19.63;;;5.50;99.90;;;;;;5110928;28;20896;-73
2020/12/21 03:48:29;;;;;;;24.37;19.97;;;5.30;99.90;;;;;;5111424;28;20587;-73
2020/12/21 03:50:55;;;;;;;23.23;18.63;;;5.30;99.90;;;;;;5111459;28;20444;-73
2020/12/21 03:53:21;;;;;;;23.47;19.30;;;5.30;99.90;;;;;;5111535;28;20480;-73
2020/12/21 03:55:48;;;;;;;24.70;20.40;;;5.30;99.90;;;;;;5110918;28;20524;-72
2020/12/21 03:58:14;;;;;;;25.50;19.80;;;5.20;99.90;;;;;;5111188;28;20545;-73
2020/12/21 04:00:40;;;;;;;28.53;21.83;;;5.10;99.90;;;;;;5111379;28;20524;-73
2020/12/21 04:03:08;;;;;;;23.37;20.30;;;5.10;99.90;;;;;;5111317;28;20452;-73
2020/12/21 04:05:34;;;;;;;24.57;19.03;;;5.10;99.90;;;;;;5111099;28;20453;-73
2020/12/21 04:08:01;;;;;;;23.93;20.73;;;5.00;99.90;;;;;;5110429;28;20556;-73
2020/12/21 04:10:27;;;;;;;23.67;20.17;;;4.90;99.90;;;;;;5110911;27;20567;-73
2020/12/21 04:12:53;;;;;;;27.20;20.10;;;5.00;99.90;;;;;;5111439;28;20544;-74
2020/12/21 04:15:20;;;;;;;24.30;20.70;;;4.90;99.90;;;;;;5110921;27;20453;-73
2020/12/21 04:17:46;;;;;;;21.37;17.70;;;4.80;99.90;;;;;;5110190;28;20461;-73
2020/12/21 04:20:13;;;;;;;23.97;20.80;;;4.70;99.90;;;;;;5110820;28;20537;-74
2020/12/21 04:22:40;;;;;;;23.47;18.53;;;4.60;99.90;;;;;;5110782;28;20532;-73
2020/12/21 04:25:06;;;;;;;21.07;19.00;;;4.60;99.90;;;;;;5110813;27;20532;-74
2020/12/21 04:27:32;;;;;;;24.80;18.90;;;4.50;99.90;;;;;;5110294;28;20548;-74
2020/12/21 04:29:58;;;;;;;25.67;19.30;;;4.50;99.90;;;;;;5110761;28;20616;-73
2020/12/21 04:32:25;;;;;;;21.30;17.50;;;4.40;99.90;;;;;;5110591;28;20983;-74
2020/12/21 04:34:51;;;;;;;24.63;19.77;;;4.30;99.90;;;;;;5110625;28;20878;-74
2020/12/21 04:37:18;;;;;;;27.07;20.60;;;4.30;99.90;;;;;;5109779;28;20914;-73
2020/12/21 04:39:45;;;;;;;25.70;20.50;;;4.30;99.90;;;;;;5110301;27;20444;-73
2020/12/21 04:42:12;;;;;;;23.30;19.20;;;4.30;99.90;;;;;;5110546;28;20881;-74
2020/12/21 04:44:40;;;;;;;26.10;20.40;;;4.40;99.90;;;;;;5110716;28;20540;-73
2020/12/21 04:47:08;;;;;;;30.73;22.67;;;4.30;99.90;;;;;;5109764;28;20495;-73
2020/12/21 04:49:34;;;;;;;29.97;22.50;;;4.30;99.90;;;;;;5110401;28;20489;-73
2020/12/21 04:52:05;;;;;;;26.53;21.73;;;4.30;99.90;;;;;;5110331;28;20449;-74
2020/12/21 04:54:32;;;;;;;24.57;19.73;;;4.30;99.90;;;;;;5110346;28;20441;-73
2020/12/21 04:56:59;;;;;;;23.77;19.03;;;4.20;99.90;;;;;;5109662;28;20491;-73
2020/12/21 04:59:26;;;;;;;26.50;21.10;;;4.30;99.90;;;;;;5110753;28;20437;-73
2020/12/21 05:01:55;;;;;;;27.63;22.00;;;4.40;99.90;;;;;;5110934;28;20490;-73
2020/12/21 05:04:22;;;;;;;28.10;22.00;;;4.60;99.90;;;;;;5110650;28;20449;-73
2020/12/21 05:06:50;;;;;;;32.67;24.10;;;4.80;99.90;;;;;;5109489;28;20851;-73
2020/12/21 05:09:16;;;;;;;32.20;25.20;;;5.00;99.90;;;;;;5109573;28;21052;-73
2020/12/21 05:11:53;;;;;;;32.07;22.90;;;5.10;99.90;;;;;;5110033;28;20881;-73
2020/12/21 05:14:29;;;;;;;30.87;23.47;;;5.20;99.90;;;;;;5109923;28;20517;-73
2020/12/21 05:16:55;;;;;;;32.57;25.70;;;5.20;99.90;;;;;;5108898;28;20557;-73
2020/12/21 05:19:22;;;;;;;32.50;24.13;;;5.30;99.90;;;;;;5109617;28;20433;-73
2020/12/21 05:21:54;;;;;;;31.77;24.30;;;5.30;99.90;;;;;;5110199;28;20445;-73
2020/12/21 05:24:22;;;;;;;27.20;21.20;;;5.30;99.90;;;;;;5110046;28;20449;-74
2020/12/21 05:26:49;;;;;;;27.37;22.43;;;5.30;99.90;;;;;;5109283;28;20465;-73
2020/12/21 05:29:25;;;;;;;28.03;21.03;;;5.30;99.90;;;;;;5108655;28;20479;-73
2020/12/21 05:31:51;;;;;;;26.83;21.50;;;5.30;99.90;;;;;;5109893;28;20471;-72
2020/12/21 05:34:25;;;;;;;25.70;20.47;;;5.30;99.90;;;;;;5109934;28;20524;-73
2020/12/21 05:36:52;;;;;;;26.47;20.50;;;5.30;99.90;;;;;;5109044;28;20545;-73
2020/12/21 05:39:19;;;;;;;23.67;19.97;;;5.30;99.90;;;;;;5109233;28;20445;-73
2020/12/21 05:41:45;;;;;;;28.53;21.00;;;5.30;99.90;;;;;;5109433;28;20560;-73
2020/12/21 05:44:12;;;;;;;22.57;18.80;;;5.40;99.90;;;;;;5109171;28;20528;-74
2020/12/21 05:46:39;;;;;;;22.40;20.00;;;5.40;99.90;;;;;;5108503;28;20469;-74
2020/12/21 05:49:06;;;;;;;23.87;19.37;;;5.40;99.90;;;;;;5108917;28;20492;-74
2020/12/21 05:51:34;;;;;;;23.00;19.40;;;5.40;99.90;;;;;;5109188;28;20906;-74
2020/12/21 05:54:01;;;;;;;21.57;18.40;;;5.40;99.90;;;;;;5108447;28;20470;-73
2020/12/21 05:56:29;;;;;;;26.90;20.27;;;5.40;99.90;;;;;;5108151;28;20528;-74
2020/12/21 05:58:56;;;;;;;26.43;22.07;;;5.40;99.90;;;;;;5108925;28;20572;-74
2020/12/21 06:01:24;;;;;;;26.57;20.40;;;5.40;99.90;;;;;;5109095;28;20817;-74
2020/12/21 06:03:51;;;;;;;22.10;18.87;;;5.40;99.90;;;;;;5109241;28;20484;-74
2020/12/21 06:06:19;;;;;;;22.63;19.27;;;5.40;99.90;;;;;;5108173;28;20454;-74
2020/12/21 06:08:47;;;;;;;21.70;18.40;;;5.40;99.90;;;;;;5108826;28;20992;-73
2020/12/21 06:11:19;;;;;;;23.57;18.27;;;5.30;99.90;;;;;;5108900;28;20506;-74
2020/12/21 06:13:58;;;;;;;21.23;17.53;;;5.30;99.90;;;;;;5108621;28;20537;-73
2020/12/21 06:16:27;;;;;;;22.00;18.93;;;5.20;99.90;;;;;;5108193;28;20453;-73
2020/12/21 06:18:59;;;;;;;19.30;17.10;;;5.20;99.90;;;;;;5108956;28;20524;-74
2020/12/21 06:21:26;;;;;;;24.13;19.63;;;5.20;99.90;;;;;;5107793;28;20445;-73
2020/12/21 06:23:52;;;;;;;20.90;17.53;;;5.20;99.90;;;;;;5108677;28;20444;-73
2020/12/21 06:26:19;;;;;;;21.77;18.90;;;5.10;99.90;;;;;;5108076;28;21330;-74
2020/12/21 06:28:45;;;;;;;30.43;18.60;;;5.10;99.90;;;;;;5108678;28;20476;-74
2020/12/21 06:31:14;;;;;;;22.83;18.40;;;5.10;99.90;;;;;;5108731;28;20831;-73
2020/12/21 06:33:42;;;;;;;23.10;19.87;;;5.10;99.90;;;;;;5108554;28;20550;-73
2020/12/21 06:36:09;;;;;;;23.90;19.23;;;5.10;99.90;;;;;;5107946;28;20543;-73
2020/12/21 06:38:43;;;;;;;24.73;19.53;;;5.10;99.90;;;;;;5108529;28;20552;-73
2020/12/21 06:41:17;;;;;;;20.77;18.30;;;5.10;99.90;;;;;;5108786;28;20525;-73
2020/12/21 06:43:57;;;;;;;24.73;19.27;;;5.10;99.90;;;;;;5108425;28;20447;-74
2020/12/21 06:46:24;;;;;;;23.33;18.90;;;5.10;99.90;;;;;;5107605;28;20982;-74
2020/12/21 06:49:13;;;;;;;20.83;17.43;;;5.00;99.90;;;;;;5108251;28;20469;-73
2020/12/21 06:51:44;;;;;;;22.47;17.53;;;5.00;99.90;;;;;;5109122;28;20864;-74
2020/12/21 06:54:12;;;;;;;19.90;17.80;;;4.90;99.90;;;;;;5113081;28;20529;-74
2020/12/21 06:56:39;;;;;;;21.10;17.90;;;4.90;99.90;;;;;;5112533;28;20441;-74
2020/12/21 06:59:13;;;;;;;22.70;18.60;;;4.90;99.90;;;;;;5113286;28;20536;-74
2020/12/21 07:01:40;;;;;;;25.07;19.47;;;5.00;99.90;;;;;;5113409;28;20517;-74
2020/12/21 07:04:14;;;;;;;20.17;16.70;;;5.00;99.90;;;;;;5113976;28;20441;-74
2020/12/21 07:06:41;;;;;;;18.53;14.67;;;5.00;99.90;;;;;;5116597;28;20465;-74
2020/12/21 07:09:08;;;;;;;21.70;17.00;;;5.00;99.90;;;;;;5116991;28;20884;-74
2020/12/21 07:11:36;;;;;;;19.43;17.37;;;5.00;99.90;;;;;;5116392;27;20461;-74
2020/12/21 07:14:03;;;;;;;21.40;17.80;;;5.00;99.90;;;;;;5117118;28;20520;-74
2020/12/21 07:16:29;;;;;;;22.87;15.97;;;5.00;99.90;;;;;;5115328;28;20549;-74
2020/12/21 07:18:56;;;;;;;21.57;17.30;;;5.00;99.90;;;;;;5115538;28;21016;-74
2020/12/21 07:21:23;;;;;;;20.17;16.73;;;4.90;99.90;;;;;;5115996;28;20964;-74
2020/12/21 07:23:49;;;;;;;24.43;17.53;;;5.00;99.90;;;;;;5115968;28;20509;-74
2020/12/21 07:26:16;;;;;;;21.53;17.60;;;5.10;99.90;;;;;;5113226;28;20935;-73
2020/12/21 07:28:45;;;;;;;20.70;16.90;;;5.10;99.90;;;;;;5111770;28;20572;-72
2020/12/21 07:31:14;;;;;;;19.67;15.80;;;5.10;99.90;;;;;;5111959;28;20593;-73
2020/12/21 07:33:55;;;;;;;22.63;16.57;;;5.10;99.90;;;;;;5112037;28;20445;-73
2020/12/21 07:36:25;;;;;;;20.80;15.20;;;5.10;99.90;;;;;;5111102;28;20494;-74
2020/12/21 07:38:52;;;;;;;17.90;16.00;;;5.10;99.90;;;;;;5112062;28;20577;-73
2020/12/21 07:41:23;;;;;;;20.20;15.60;;;5.10;99.90;;;;;;5111776;28;20988;-73
2020/12/21 07:44:02;;;;;;;19.50;17.27;;;5.00;99.90;;;;;;5111761;28;20445;-73
2020/12/21 07:46:35;;;;;;;19.40;15.20;;;5.10;99.90;;;;;;5110834;28;20536;-72
2020/12/21 07:49:02;;;;;;;18.57;16.07;;;5.00;99.90;;;;;;5112095;28;20566;-73
2020/12/21 07:51:31;;;;;;;22.80;17.70;;;5.00;99.90;;;;;;5111962;28;20449;-73
2020/12/21 07:54:01;;;;;;;20.47;16.80;;;5.00;99.90;;;;;;5111871;28;20532;-73
2020/12/21 07:56:27;;;;;;;19.90;17.13;;;5.00;99.90;;;;;;5110810;28;20471;-73
2020/12/21 07:58:54;;;;;;;24.10;17.73;;;5.00;99.90;;;;;;5111525;28;20526;-73
2020/12/21 08:01:23;;;;;;;20.43;17.17;;;5.00;99.90;;;;;;5111280;28;20480;-73
2020/12/21 08:03:52;;;;;;;21.40;17.40;;;5.00;99.90;;;;;;5111186;28;20445;-73
2020/12/21 08:06:22;;;;;;;20.50;16.53;;;5.10;99.90;;;;;;5110535;28;20445;-73
2020/12/21 08:08:50;;;;;;;19.43;16.33;;;5.20;99.90;;;;;;5111061;28;20488;-72
2020/12/21 08:11:19;;;;;;;20.17;16.87;;;5.30;99.90;;;;;;5111091;28;20445;-73
2020/12/21 08:13:50;;;;;;;19.40;17.07;;;5.40;99.90;;;;;;5111149;27;20487;-74
2020/12/21 08:16:23;;;;;;;21.23;14.70;;;5.50;99.90;;;;;;5109601;28;20532;-73
2020/12/21 08:18:50;;;;;;;21.13;17.73;;;5.50;99.90;;;;;;5111154;28;20820;-72
2020/12/21 08:21:17;;;;;;;28.80;21.83;;;5.50;99.90;;;;;;5110954;28;20527;-72
2020/12/21 08:23:52;;;;;;;25.30;22.60;;;5.60;99.90;;;;;;5111193;28;20441;-74
2020/12/21 08:26:18;;;;;;;21.20;16.33;;;5.60;99.90;;;;;;5110309;28;20451;-75
2020/12/21 08:28:45;;;;;;;21.83;17.53;;;5.70;99.90;;;;;;5110821;28;20503;-74
2020/12/21 08:31:17;;;;;;;18.20;15.57;;;5.80;99.90;;;;;;5111015;27;20453;-75
2020/12/21 08:33:56;;;;;;;20.37;16.40;;;5.80;99.90;;;;;;5118171;28;20441;-76
2020/12/21 08:36:24;;;;;;;17.37;15.13;;;5.90;99.90;;;;;;5113226;28;20490;-75
2020/12/21 08:38:52;;;;;;;17.70;14.60;;;5.90;99.90;;;;;;5111636;28;20469;-75
2020/12/21 08:41:20;;;;;;;17.10;14.10;;;6.00;99.90;;;;;;5110959;27;20548;-73
2020/12/21 08:43:47;;;;;;;15.23;12.50;;;6.00;99.90;;;;;;5109833;28;20936;-74
2020/12/21 08:46:14;;;;;;;14.57;12.40;;;6.10;99.90;;;;;;5110066;28;20443;-74
2020/12/21 08:48:45;;;;;;;15.00;12.57;;;6.10;99.90;;;;;;5110335;28;21191;-74
2020/12/21 08:51:12;;;;;;;14.97;11.60;;;6.20;99.90;;;;;;5110250;28;20453;-73
2020/12/21 08:53:39;;;;;;;15.03;13.40;;;6.20;99.90;;;;;;5110166;28;20993;-73
2020/12/21 08:56:14;;;;;;;14.70;12.17;;;6.20;99.90;;;;;;5109509;28;20732;-74
2020/12/21 08:58:40;;;;;;;15.63;13.20;;;6.20;99.90;;;;;;5109976;28;20465;-75
2020/12/21 09:01:08;;;;;;;15.63;12.63;;;6.30;99.90;;;;;;5110042;28;20949;-74
2020/12/21 09:03:34;;;;;;;16.70;13.30;;;6.30;99.90;;;;;;5110050;28;20452;-74
2020/12/21 09:06:01;;;;;;;15.20;13.47;;;6.40;99.90;;;;;;5109265;28;21108;-74
2020/12/21 09:08:28;;;;;;;16.73;12.90;;;6.50;99.90;;;;;;5109855;28;20552;-75
2020/12/21 09:10:54;;;;;;;16.47;13.70;;;6.50;99.90;;;;;;5110053;28;20485;-74
2020/12/21 09:13:22;;;;;;;21.63;12.60;;;6.60;99.90;;;;;;5110630;28;21085;-76
2020/12/21 09:15:48;;;;;;;12.63;11.13;;;6.60;99.90;;;;;;5110702;28;21079;-77
2020/12/21 09:18:15;;;;;;;13.87;12.00;;;6.70;99.90;;;;;;5113209;28;20468;-77
2020/12/21 09:20:45;;;;;;;15.27;11.97;;;6.70;99.90;;;;;;5112965;28;20456;-78
2020/12/21 09:23:12;;;;;;;13.60;11.60;;;6.80;99.90;;;;;;5111951;28;20449;-78
2020/12/21 09:25:39;;;;;;;11.77;9.70;;;6.80;99.90;;;;;;5112067;28;20959;-75
2020/12/21 09:28:05;;;;;;;11.93;10.73;;;6.80;99.90;;;;;;5109244;28;20578;-76
2020/12/21 09:30:33;;;;;;;15.77;12.10;;;6.90;99.90;;;;;;5111551;28;20503;-75
2020/12/21 09:33:00;;;;;;;12.23;11.03;;;6.90;99.90;;;;;;5110066;28;20454;-76
2020/12/21 09:35:26;;;;;;;12.23;11.03;;;7.00;99.90;;;;;;5110955;28;20973;-77
2020/12/21 09:37:53;;;;;;;12.60;10.83;;;7.10;99.90;;;;;;5110756;28;20548;-77
2020/12/21 09:40:20;;;;;;;14.17;12.77;;;7.10;99.90;;;;;;5110081;28;20516;-74
2020/12/21 09:42:46;;;;;;;16.80;12.47;;;7.20;99.90;;;;;;5109354;28;21239;-76
2020/12/21 09:45:13;;;;;;;15.10;13.30;;;7.30;99.90;;;;;;5105689;28;20509;-73
2020/12/21 09:47:40;;;;;;;14.10;12.70;;;7.40;99.90;;;;;;5100135;28;20977;-76
2020/12/21 09:50:06;;;;;;;13.87;11.73;;;7.50;99.90;;;;;;5101773;27;20826;-76
2020/12/21 09:52:33;;;;;;;18.60;11.40;;;7.60;99.90;;;;;;5088759;28;20446;-76
2020/12/21 09:54:59;;;;;;;12.93;11.60;;;7.70;99.90;;;;;;5097822;28;20507;-71
2020/12/21 09:57:26;;;;;;;13.77;11.70;;;7.80;99.90;;;;;;5104144;28;20548;-72
2020/12/21 09:59:52;;;;;;;14.47;12.33;;;7.80;99.90;;;;;;5102737;28;20844;-73
2020/12/21 10:02:18;;;;;;;14.73;12.40;;;7.90;99.90;;;;;;5096557;27;20523;-73
2020/12/21 10:04:46;;;;;;;22.10;18.03;;;8.00;99.90;;;;;;5096810;28;20441;-74
2020/12/21 10:07:12;;;;;;;20.40;18.23;;;8.00;99.90;;;;;;5105519;28;20552;-72
2020/12/21 10:09:38;;;;;;;14.97;13.00;;;8.10;99.90;;;;;;5107447;27;20556;-75
2020/12/21 10:12:05;;;;;;;16.97;13.90;;;8.00;99.90;;;;;;5098261;28;20528;-73
2020/12/21 10:14:31;;;;;;;12.80;11.30;;;8.10;99.90;;;;;;5098484;28;20440;-72
2020/12/21 10:16:58;;;;;;;13.43;11.07;;;8.20;99.90;;;;;;5100430;28;20894;-76
2020/12/21 10:19:24;;;;;;;13.53;12.13;;;8.30;99.90;;;;;;5087438;28;20521;-76
2020/12/21 10:21:51;;;;;;;12.50;10.40;;;8.40;99.90;;;;;;5091640;28;20464;-76
2020/12/21 10:24:18;;;;;;;11.83;10.63;;;8.60;99.90;;;;;;5096717;28;20481;-74
2020/12/21 10:26:44;;;;;;;10.90;9.80;;;8.70;99.90;;;;;;5102633;28;20560;-76
2020/12/21 10:29:11;;;;;;;11.33;8.67;;;8.70;99.90;;;;;;5098921;28;20476;-78
2020/12/21 10:31:37;;;;;;;11.10;9.90;;;8.70;99.90;;;;;;5101392;28;20544;-75
2020/12/21 10:34:06;;;;;;;15.37;9.60;;;8.60;99.90;;;;;;5105198;28;20953;-80
2020/12/21 10:36:32;;;;;;;9.97;8.87;;;8.60;99.90;;;;;;5092671;28;20505;-77
2020/12/21 10:39:00;;;;;;;9.83;8.83;;;8.60;99.90;;;;;;5100111;28;20532;-76
2020/12/21 10:41:31;;;;;;;10.40;9.00;;;8.60;99.90;;;;;;5113486;28;20517;-75
2020/12/21 10:43:57;;;;;;;9.27;8.33;;;8.60;99.90;;;;;;5112192;28;20481;-72
2020/12/21 10:46:23;;;;;;;10.00;8.07;;;8.60;99.90;;;;;;5108029;28;20529;-77
2020/12/21 10:48:50;;;;;;;11.00;9.40;;;8.70;99.90;;;;;;5111826;28;20572;-77
2020/12/21 10:51:24;;;;;;;9.33;8.43;;;8.70;99.90;;;;;;5109295;28;20449;-78
2020/12/21 10:53:50;;;;;;;11.73;9.23;;;8.70;99.90;;;;;;5112765;28;21123;-78
2020/12/21 10:56:17;;;;;;;11.57;10.40;;;8.70;99.90;;;;;;5107883;28;20854;-78
2020/12/21 10:58:44;;;;;;;10.00;8.97;;;8.70;99.90;;;;;;5111453;28;20504;-77
2020/12/21 11:01:10;;;;;;;9.93;8.93;;;8.70;99.90;;;;;;5108795;27;20508;-75
2020/12/21 11:03:37;;;;;;;10.03;9.03;;;8.70;99.90;;;;;;5101613;28;20887;-77
2020/12/21 11:06:03;;;;;;;13.00;8.90;;;8.70;99.90;;;;;;5089527;28;20865;-77
2020/12/21 11:08:30;;;;;;;10.43;9.20;;;8.70;99.90;;;;;;5100024;28;20596;-77
2020/12/21 11:10:56;;;;;;;10.63;8.40;;;8.70;99.90;;;;;;5106866;28;20565;-74
2020/12/21 11:13:24;;;;;;;9.30;8.13;;;8.70;99.90;;;;;;5108198;28;20932;-76
2020/12/21 11:15:50;;;;;;;10.27;8.30;;;8.70;99.90;;;;;;5106052;28;20488;-76
2020/12/21 11:18:17;;;;;;;11.30;10.10;;;8.80;99.90;;;;;;5107278;28;20494;-77
2020/12/21 11:20:43;;;;;;;10.60;9.60;;;9.00;99.90;;;;;;5111431;28;20837;-77
2020/12/21 11:23:10;;;;;;;11.67;10.40;;;9.00;99.90;;;;;;5110180;28;20544;-77
2020/12/21 11:25:36;;;;;;;10.40;9.00;;;9.10;99.90;;;;;;5108698;28;20459;-80
2020/12/21 11:28:04;;;;;;;12.50;10.10;;;9.20;99.90;;;;;;5107026;28;20497;-75
2020/12/21 11:30:32;;;;;;;10.60;9.10;;;9.20;99.90;;;;;;5104487;28;20572;-75
2020/12/21 11:33:00;;;;;;;9.63;8.60;;;9.10;99.90;;;;;;5106193;28;20484;-74
2020/12/21 11:35:27;;;;;;;10.13;8.43;;;9.00;99.90;;;;;;5109315;28;20457;-76
2020/12/21 11:37:53;;;;;;;9.33;8.43;;;9.00;99.90;;;;;;5103839;28;21024;-75
2020/12/21 11:40:20;;;;;;;11.63;7.97;;;9.00;99.90;;;;;;5110034;28;20524;-76
2020/12/21 11:42:47;;;;;;;11.23;7.90;;;9.00;99.90;;;;;;5111771;28;20506;-77
2020/12/21 11:45:13;;;;;;;13.10;7.87;;;9.00;99.90;;;;;;5107179;28;20524;-76
2020/12/21 11:47:40;;;;;;;11.40;7.90;;;9.00;99.90;;;;;;5100447;28;20707;-74
2020/12/21 11:50:07;;;;;;;9.50;8.60;;;8.90;99.90;;;;;;5101733;27;20884;-74
2020/12/21 11:52:33;;;;;;;10.70;8.77;;;8.90;99.90;;;;;;5105311;28;20541;-74
2020/12/21 11:55:00;;;;;;;9.10;8.20;;;8.80;99.90;;;;;;5108178;28;20529;-74
2020/12/21 11:57:28;;;;;;;11.70;8.87;;;8.80;99.90;;;;;;5105956;28;20469;-76
2020/12/21 11:59:55;;;;;;;10.43;9.00;;;8.90;99.90;;;;;;5100566;28;20449;-74
2020/12/21 12:02:21;;;;;;;12.30;9.13;;;9.10;99.90;;;;;;5102112;28;20444;-72
2020/12/21 12:04:49;;;;;;;9.17;8.17;;;9.10;99.90;;;;;;5104648;28;20437;-74
2020/12/21 12:07:15;;;;;;;10.87;8.60;;;9.10;99.90;;;;;;5107214;28;20461;-75
2020/12/21 12:09:42;;;;;;;11.70;9.60;;;9.20;99.90;;;;;;5106240;28;20533;-76
2020/12/21 12:12:08;;;;;;;11.93;10.23;;;9.20;99.90;;;;;;5110656;28;20430;-73
2020/12/21 12:14:35;;;;;;;10.37;9.10;;;9.40;99.90;;;;;;5110928;28;20456;-72
2020/12/21 12:17:02;;;;;;;10.57;8.80;;;9.40;99.90;;;;;;5106397;28;20510;-74
2020/12/21 12:19:29;;;;;;;11.30;8.43;;;9.60;99.90;;;;;;5107523;28;20528;-76
2020/12/21 12:21:56;;;;;;;9.60;8.17;;;9.70;99.90;;;;;;5091619;28;20478;-76
2020/12/21 12:24:23;;;;;;;11.07;9.00;;;9.80;99.90;;;;;;5096104;28;20514;-76
2020/12/21 12:26:52;;;;;;;11.23;9.10;;;9.90;99.90;;;;;;5096740;28;20550;-77
2020/12/21 12:29:18;;;;;;;9.30;8.33;;;10.00;99.90;;;;;;5100282;28;21431;-72
2020/12/21 12:31:45;;;;;;;8.70;6.73;;;10.00;99.90;;;;;;5104848;28;20458;-73
2020/12/21 12:34:11;;;;;;;7.50;5.80;;;9.80;99.90;;;;;;5103947;28;20544;-72
2020/12/21 12:36:39;;;;;;;8.77;6.40;;;9.80;99.90;;;;;;5107256;28;20516;-72
2020/12/21 12:39:06;;;;;;;8.40;6.07;;;9.70;99.90;;;;;;5103437;28;20994;-72